Главная страница
METAR-TAF:

METAR-TAF

Аэропорты :

Борнхольм

Рённе, Дания

широта: 55-04N, долгота: 014-45E, высота над уровнем моря: 16 м

Текущие метеонаблюдения

Эта сводка был подготовлена 14 минут назад, в 10:20 UTC
Ветер 15 Узел от западно-северо-западный
Температура 7°C
Влажность 87%
Давление 1026 hPa
Видимость 10 км и более

METAR: EKRN 221020Z AUTO 30015KT 9999 // NCD 07/05 Q1026

Время: 11:34 (10:34 UTC)

Прогноз

Эта сводка был подготовлена 2 часа и 26 минут назад, в 08:08 UTC
Прогноз действительный с 22-го 09 UTC до 22-го 18 UTC
Ветер 18 Узел от западно-северо-западный
Видимость 10 км и более
Рассеянная облачность на высоте 2000 фута
временами
С 22-го 09 UTC до 22-го 12 UTC
Ветер 15 Узел от северо-западный с порывами до 25 Узел

TAF: EKRN 220808Z 2209/2218 30018KT 9999 BKN020 TEMPO 2209/2212 32015G25KT

Метеонаблюдения и прогнозы для более 4000 аэропортов (сводки METAR и TAF).

Имеющиеся станции представлены на карте желтыми и красными точками.

Чтобы увидеть название станции, наведите на нее мышь.

Затем щелкните, чтобы увидеть метеонаблюдения и метеопрогнозы.

Управление картой: чтобы увеличить масштаб, щелкните зеленые кнопки с черным крестиком; чтобы уменьшить масштаб, щелкните зеленую кнопку с тире; для просмотра соседних карт щелкайте зеленые стрелки.


METAR-TAF: